Skip Navigation LinksHome page > Weather > Current weather Skip Navigation Links

Current Weather

Newark Intl, Newark, N.J.

For information only: do not use for flight planning or navigation.
Latest weather
Observation time Sunday, March 24, 2019 9:51 PM EDT
Local time Sunday, March 24, 2019 10:13 PM EDT
Flight conditions Visual Meteorological Conditions
Winds
Wind direction Southwest (220°)
Wind speed 7 mph
Visibility 10 mi.
Sky condition
Ceiling 15,000 ft. broken clouds
Cloud layer scattered clouds 10,000 ft.
Cloud layer broken clouds 15,000 ft.
Cloud layer overcast 24,000 ft.
Temperature 55°F
Dewpoint 21°F
Altimeter 30.05 in.Hg
Derived measurements
Relative humidity 26%
Density altitude -324 ft.
Sea-level pressure 30.05 in.Hg
Remarks
Automated weather observing station with precipitation discriminator.
METAR KEWR 250151Z 22006KT 10SM SCT100 BKN150 OVC240 13/M06 A3005 RMK AO2 SLP176 T01281061

Settings

Location code

InnerDrive.Weather 4.0.6770.0 Release CLR 4.0.30319.42000
Copyright ©2018 Inner Drive Technology. All rights reserved. Portions Copyright ©1986-2018 David Braverman.

Find weather

Site navigation


Skip Navigation Links

Place info

Page info

PayPal - The safer, easier way to pay online!

Return home.

Copyright ©2019 Inner Drive Technology. Purveyors of fine, hand-crafted computer software. Page printed 2019-03-25T02:13:37 UTC.